Racecast

Jaeson Matthews

Umoja (CA) · - · Compare head to head

Athlete rating 124.6 2016 TF season
Best race 124.6 TF
Races 121
Seasons 9 2008 — 2016

RankedNation #3490·CA #302·Team #15 ?

Rating scale ?
Speed rating — all races

Track & Field

TF speed rating

2016 TF 124.6

Umoja (CA) · Grade -

Date Meet Event Result Place Rating Difficulty PR/SR Flags
2016-07-31 USATF National Junior Olympic Championships 400m 53.92 39th · 1st on team +0.012 ★PR SR
2016-07-31 USATF National Junior Olympic Championships 400m 54.58 47th · 2nd on team +0.012
2016-06-12 USATF Pacific Association Youth Championship 100m 12.29 17th · 3rd on team -0.035 ★PR SR
2016-06-12 USATF Pacific Association Youth Championship 400m 56.08 5th · 1st on team -0.035
2016-06-12 USATF Pacific Association Youth Championship 200m 25.15 14th · 3rd on team -0.035
2016-06-12 USATF Pacific Association Youth Championship 200m 25.17 15th · 4th on team -0.035
2016-05-29 32nd Annual Los Angeles Jets Invitational 400m 55.62 13th · 1st on team -0.035
2016-05-29 32nd Annual Los Angeles Jets Invitational 200m 24.86 12th · 1st on team -0.035
2016-05-29 32nd Annual Los Angeles Jets Invitational 100m 12.43 19th · 1st on team -0.035 PR SR
2016-05-29 32nd Annual Los Angeles Jets Invitational 800m 2:25.64 22nd · 1st on team 124.6 -0.035 ★PR ★R SR RSR
2016-05-15 3M USATF Youth T&F Meet 200m 24.71 4th · 1st on team -0.028 ★PR SR
2016-05-15 3M USATF Youth T&F Meet 400m 55.49 3rd · 1st on team -0.028 PR SR
2016-04-02 Sac Speed Factory USATF Youth T&F Meet 200m 26.01 6th · 1st on team -0.033 SR
2016-04-02 Sac Speed Factory USATF Youth T&F Meet 400m 57.82 4th · 1st on team -0.033 SR
2016-04-02 Sac Speed Factory USATF Youth T&F Meet 100m 12.65 8th · 1st on team -0.033 SR

2015 TF 120.8

Umoja (CA) · Grade -

Date Meet Event Result Place Rating Difficulty PR/SR Flags
2015-05-31 PAC (Pacific Association Youth Champions 200m 26 26th · 2nd on team -0.024
2015-05-31 PAC (Pacific Association Youth Champions 400m 58.71 13th · 3rd on team -0.024
2015-05-31 PAC (Pacific Association Youth Champions 100m 12.99 20th · 2nd on team -0.024
2015-05-23 LA Jets 2015 Invitational 100m 12.87 29th · 1st on team -0.035
2015-05-23 LA Jets 2015 Invitational 400m 58.19 29th · 2nd on team -0.035
2015-05-23 LA Jets 2015 Invitational 200m 26.04 23rd · 1st on team -0.035
2015-05-16 3M Track Club Track and Field Invitation 400m 58.33 12th · 1st on team -0.028
2015-05-16 3M Track Club Track and Field Invitation 100m 12.75 21st · 1st on team -0.028
2015-05-02 Running Rebels/Top Pacers Invitational 400m 57.58 7th · 1st on team -0.038 PR SR
2015-05-02 Running Rebels/Top Pacers Invitational 100m 12.61 18th · 2nd on team -0.038
2015-05-02 Running Rebels/Top Pacers Invitational 100m 12.51 14th · 1st on team -0.038 PR SR
2015-04-18 Shor/Sheppard Invitational 200m 25.94 7th · 1st on team -0.022 PR SR
2015-04-18 Shor/Sheppard Invitational 400m 57.69 1st · 1st on team -0.022 PR SR
2015-04-18 Shor/Sheppard Invitational 100m 12.55 4th · 1st on team -0.022 PR SR
2015-04-04 Sacramento Speed Factory 400m 59.62 13th · 2nd on team -0.033
2015-04-04 Sacramento Speed Factory 800m 2:30.52 13th · 3rd on team 120.8 -0.033 R SR RSR
2015-03-21 RPM Legacy 400m 59.24 9th · 1st on team -0.020 PR SR
2015-03-21 RPM Legacy 100m 13.1 14th · 1st on team -0.020 PR SR

2014 TF 100.0

Umoja (CA) · Grade -

Date Meet Event Result Place Rating Difficulty PR/SR Flags
2014-06-20 USATF Pacific Assoc. Junior Olympics (Top 8) 800m 2:28.05 6th · 2nd on team 102.2 -0.031
2014-05-25 Los Angeles Jets Invitational 200m 27.7 28th · 1st on team -0.028 PR SR
2014-05-25 Los Angeles Jets Invitational 800m 2:29.8 11th · 1st on team 101.3 -0.028
2014-05-25 Los Angeles Jets Invitational 400m 1:02.6 16th · 1st on team -0.028 PR SR
2014-05-18 3M Invitational 400m 1:03.6 3rd · 2nd on team -0.028 PR SR
2014-05-18 3M Invitational 800m 2:33.87 4th · 2nd on team 98.8 -0.028
2014-04-19 3rd Annual Shor/Sheppard Classic Meet 400m 1:07.82 7th · 2nd on team -0.022
2014-04-19 3rd Annual Shor/Sheppard Classic Meet 800m 2:27.78 3rd · 2nd on team 103.3 -0.022 PR R SR RSR
2014-04-05 Sacramento Speed Showcase 400m 1:05.6 6th · 1st on team -0.033 PR SR
2014-04-05 Sacramento Speed Showcase 800m 2:39.67 7th · 2nd on team 94.5 -0.033 PR R SR RSR
2014-04-05 Sacramento Speed Showcase 80mh 16.67 6th · 2nd on team -0.033 ★PR SR
2014-03-22 RPM 80mh 18.94 6th · 1st on team -0.012 SR
2014-03-22 RPM 400m 1:10.64 8th · 2nd on team -0.012 PR SR

2013 TF 87.1

Umoja (CA) · Grade -

Date Meet Event Result Place Rating Difficulty PR/SR Flags
2013-06-08 Pacific Association Youth Championship (PAC) - 2-day meet 200m 31.71 32nd · 1st on team -0.024 PR SR
2013-05-25 Central Valley Roadrunners (2-day meet) 100m 15.11 14th · 1st on team -0.026
2013-05-25 Central Valley Roadrunners (2-day meet) 100m 15.5 16th · 2nd on team -0.026
2013-05-25 Central Valley Roadrunners (2-day meet) 80mh 17.68 2nd · 1st on team -0.026 PR SR
2013-05-25 Central Valley Roadrunners (2-day meet) 400m 1:12.34 6th · 3rd on team -0.026 PR SR
2013-05-18 3M Track Club 80mh 19.25 13th · 1st on team -0.028 PR SR
2013-05-18 3M Track Club 400m 1:25.79 53rd · 4th on team -0.028
2013-05-04 Hercules / Running Rebels (2-day) 400m 1:29.42 53rd · 7th on team -0.038
2013-05-04 Hercules / Running Rebels (2-day) 200m 33.2 43rd · 2nd on team -0.038 PR SR
2013-04-27 Revolution Express Track Club 100m 14.84 24th · 2nd on team -0.024 PR SR
2013-04-27 Revolution Express Track Club 200m 33.79 28th · 5th on team -0.024
2013-04-27 Revolution Express Track Club 400m 1:12.69 20th · 4th on team -0.024 PR SR
2013-04-20 Shor / Sheppard Classic 200m 33.35 53rd · 3rd on team -0.022 PR SR
2013-04-20 Shor / Sheppard Classic 800m 2:54.88 20th · 5th on team 87.1 -0.022 SR RSR
2013-03-30 Stockton Saints 100m 15.81 45th · 1st on team -0.016 PR SR
2013-03-30 Stockton Saints 400m 1:15.65 48th · 5th on team -0.016 PR SR

2012 TF 85.9

Umoja (CA) · Grade -

Date Meet Event Result Place Rating Difficulty PR/SR Flags
2012-06-09 Pacific Association Youth Championships 400m 1:16.75 16th · 6th on team -0.034
2012-06-09 Pacific Association Youth Championships 800m 2:56.64 11th · 4th on team 85.1 -0.034
2012-06-09 Pacific Association Youth Championships 1500m 6:00.19 10th · 2nd on team 87.5 -0.034
2012-05-26 Central Valley Roadrunners Track Club 1500m 6:02.98 6th · 1st on team 87.3 -0.026
2012-05-26 Central Valley Roadrunners Track Club 800m 3:00.58 9th · 2nd on team 83.8 -0.026
2012-05-26 Central Valley Roadrunners Track Club 400m 1:16.33 13th · 2nd on team -0.026 PR SR
2012-05-19 3M Track Meet 800m 2:52.05 13th · 1st on team 87.4 -0.031 PR SR
2012-05-19 3M Track Meet 1500m 5:55.54 5th · 1st on team 88.7 -0.031
2012-05-05 Hercules Running Rebels / Top Pacers Invitational 400m 1:20.05 29th · 3rd on team -0.038
2012-05-05 Hercules Running Rebels / Top Pacers Invitational 1500m 6:06.88 5th · 1st on team 85.5 -0.038
2012-05-05 Hercules Running Rebels / Top Pacers Invitational 800m 2:57.59 11th · 3rd on team 84.3 -0.038
2012-04-21 Shor / Sheppard Classic 1500m 5:51.42 4th · 1st on team 90.6 -0.022 ★PR R SR RSR
2012-04-21 Shor / Sheppard Classic 800m 3:13.79 6th · 1st on team 78.4 -0.022
2012-04-07 Phenom Elite 400m 1:18.43 17th · 5th on team -0.022 PR SR
2012-03-24 Revolution Express Track Club 200m 35.22 9th · 3rd on team -0.024 SR
2012-03-24 Revolution Express Track Club 800m 2:55.54 4th · 1st on team 86.6 -0.024 PR R SR RSR
2012-03-24 Revolution Express Track Club 100m 16.37 10th · 3rd on team -0.024 PR SR

2011 TF 83.8

Umoja (CA) · Grade -

Date Meet Event Result Place Rating Difficulty PR/SR Flags
2011-06-11 PA USATF Youth Championships (PAC) 400m 1:23.41 32nd · 4th on team -0.028
2011-06-11 PA USATF Youth Championships (PAC) 800m 3:04.25 17th · 3rd on team 81.9 -0.028
2011-05-27 L.A.Jets Invitational 400m 1:21.34 62nd · 4th on team -0.034 SR
2011-05-27 L.A.Jets Invitational 800m 2:57.9 23rd · 3rd on team 84.3 -0.034
2011-05-27 L.A.Jets Invitational 200m 36.44 60th · 2nd on team -0.034
2011-05-21 Hercules Running Rebels & Top Pacers Track Club Invitational 400m 1:26.5 33rd · 3rd on team -0.038 SR
2011-05-21 Hercules Running Rebels & Top Pacers Track Club Invitational 200m 35.18 37th · 3rd on team -0.038 PR SR
2011-05-21 Hercules Running Rebels & Top Pacers Track Club Invitational 800m 2:58.83 10th · 3rd on team 83.6 -0.038
2011-05-14 3M Track Club Invitational 400m 1:29.91 33rd · 1st on team -0.028 SR
2011-05-14 3M Track Club Invitational 800m 2:57.62 10th · 2nd on team 85.2 -0.028 PR R SR RSR
2011-05-14 3M Track Club Invitational 200m 36.11 38th · 3rd on team -0.028 SR

2010 TF

Umoja (CA) · Grade -

Date Meet Event Result Place Rating Difficulty PR/SR Flags
2010-05-01 UMOJA 400m 1:23.41 6th · 1st on team -0.016
2010-05-01 UMOJA 200m 35.77 22nd · 1st on team -0.016 PR SR
2010-04-17 Roseville PAL Express Track Club 200m 37.09 4th · 1st on team -0.024 PR SR
2010-04-17 Roseville PAL Express Track Club 400m 1:20.31 3rd · 1st on team -0.024 PR SR
2010-04-03 Stockton Saints 400m 1:22.64 1st · 1st on team -0.023
2010-03-27 Race results → 400m 1:20.7 2nd · 1st on team PR SR
2010-03-27 Race results → 100m 17.3 17th · 2nd on team PR SR

2009 TF

Umoja (CA) · Grade -

Date Meet Event Result Place Rating Difficulty PR/SR Flags
2009-06-13 Pacific Association Youth Championships (PAC) 200m 38.63 39th · 4th on team -0.029
2009-06-13 Pacific Association Youth Championships (PAC) 400m 1:29.95 23rd · 4th on team -0.029
2009-06-13 Pacific Association Youth Championships (PAC) 100m 18.73 47th · 5th on team -0.029
2009-05-23 LA Jets Invitational lj ND -0.035
2009-05-23 LA Jets Invitational 100m 21.06 140th · 5th on team -0.035
2009-05-23 LA Jets Invitational 200m 39.27 62nd · 5th on team -0.035
2009-05-16 3M Track Club lj 4-10.50 -0.028
2009-05-16 3M Track Club 200m 38.32 30th · 4th on team -0.028 PR SR
2009-05-16 3M Track Club 100m 18.61 51st · 6th on team -0.028
2009-05-02 Race results → 400m 1:33.77 14th · 3rd on team
2009-05-02 Race results → 100m 19.3 45th · 6th on team
2009-05-02 Race results → 200m 39.76 39th · 4th on team PR SR
2009-04-18 Roseville Express Track Club 200m 46.03 37th · 3rd on team -0.025 SR
2009-04-18 Roseville Express Track Club 100m 19.72 36th · 3rd on team -0.025
2009-03-28 Race results → 400m 1:27.04 6th · 2nd on team PR SR
2009-03-28 Race results → 100m 18.34 23rd · 3rd on team PR SR
2009-03-14 Race results → 400m 1:43.55 27th · 4th on team SR
2009-03-14 Race results → 100m 19.86 16th · 1st on team PR SR

2008 TF

Umoja (CA) · Grade -

Date Meet Event Result Place Rating Difficulty PR/SR Flags
2008-06-07 Pacific Association Championships (PAC) lj 1.39m -0.024
2008-06-07 Pacific Association Championships (PAC) 400m 1:34.41 10th · 3rd on team -0.024 PR SR
2008-06-07 Pacific Association Championships (PAC) 100m 20.94 36th · 3rd on team -0.024
2008-05-03 UMOJA Youth Track Club 200m 41.26 26th · 3rd on team -0.016 PR SR
2008-05-03 UMOJA Youth Track Club 100m 20.59 41st · 6th on team -0.016 PR SR
2008-05-03 UMOJA Youth Track Club 400m 1:36.7 16th · 3rd on team -0.016 PR SR